Time;durP1;ratioP1;P1;durP2;ratioP2;P2;SDS_P1;SDS_P2;PMS_P1;PMS_P2;Temp;Humidity;BMP_temperature;BMP_pressure;BME280_temperature;BME280_humidity;BME280_pressure;Samples;Min_cycle;Max_cycle;Signal;HPM_P1;HPM_P2
2022/12/24 00:01:05;;;;;;;4.45;2.13;;;10.80;99.90;;;;;;5053069;28;20897;-81
2022/12/24 00:03:32;;;;;;;3.63;1.43;;;10.80;99.90;;;;;;5052391;28;20223;-81
2022/12/24 00:06:03;;;;;;;0.50;0.40;;;10.80;99.90;;;;;;5049851;28;20491;-80
2022/12/24 00:08:30;;;;;;;0.88;0.88;;;10.80;99.90;;;;;;5051718;28;20528;-80
2022/12/24 00:10:57;;;;;;;2.97;2.23;;;10.70;99.90;;;;;;5056316;28;20237;-81
2022/12/24 00:13:24;;;;;;;0.50;0.40;;;10.70;99.90;;;;;;5053131;28;20572;-81
2022/12/24 00:15:52;;;;;;;2.20;0.70;;;10.70;99.90;;;;;;5054264;28;20278;-80
2022/12/24 00:18:19;;;;;;;0.50;0.40;;;10.70;99.90;;;;;;5057153;28;20433;-81
2022/12/24 00:20:47;;;;;;;0.60;0.50;;;10.80;99.90;;;;;;5052610;28;20445;-79
2022/12/24 00:23:14;;;;;;;13.40;3.25;;;10.70;99.90;;;;;;5051447;28;20552;-80
2022/12/24 00:25:41;;;;;;;0.50;0.40;;;10.80;99.90;;;;;;5048873;28;20290;-80
2022/12/24 00:28:08;;;;;;;3.63;3.42;;;10.70;99.90;;;;;;5058976;28;20226;-80
2022/12/24 00:30:34;;;;;;;33.80;14.20;;;10.70;99.90;;;;;;5052412;28;20217;-78
2022/12/24 00:33:03;;;;;;;2.47;0.60;;;10.70;99.90;;;;;;5057483;28;20534;-80
2022/12/24 00:35:30;;;;;;;0.60;0.57;;;10.70;99.90;;;;;;5054498;28;20214;-81
2022/12/24 00:37:56;;;;;;;2.15;0.90;;;10.70;99.90;;;;;;5057571;28;20191;-81
2022/12/24 00:40:23;;;;;;;3.13;1.02;;;10.70;99.90;;;;;;5058962;28;20219;-81
2022/12/24 00:42:50;;;;;;;0.60;0.50;;;10.70;99.90;;;;;;5059848;28;20210;-81
2022/12/24 00:45:17;;;;;;;10.60;1.80;;;10.70;99.90;;;;;;5066726;28;20445;-81
2022/12/24 00:47:44;;;;;;;2.83;1.35;;;10.70;99.90;;;;;;5058752;28;20523;-81
2022/12/24 00:50:12;;;;;;;1.30;1.20;;;10.70;99.90;;;;;;5058793;28;20579;-81
2022/12/24 00:52:39;;;;;;;0.60;0.43;;;10.60;99.90;;;;;;5057285;28;20278;-81
2022/12/24 00:55:06;;;;;;;0.83;0.70;;;10.60;99.90;;;;;;5059357;28;20241;-80
2022/12/24 00:57:33;;;;;;;0.50;0.40;;;10.60;99.90;;;;;;5070781;28;20475;-80
2022/12/24 01:00:00;;;;;;;15.30;1.27;;;10.60;99.90;;;;;;5066289;28;20191;-79
2022/12/24 01:02:27;;;;;;;0.63;0.60;;;10.60;99.90;;;;;;5065903;28;20446;-79
2022/12/24 01:05:12;;;;;;;2.20;0.97;;;10.60;99.90;;;;;;5068787;28;20488;-78
2022/12/24 01:07:42;;;;;;;3.72;2.42;;;10.60;99.90;;;;;;5065729;28;20505;-80
2022/12/24 01:10:11;;;;;;;0.65;0.65;;;10.50;99.90;;;;;;5071369;28;20225;-79
2022/12/24 01:12:39;;;;;;;18.97;2.43;;;10.50;99.90;;;;;;5067949;28;20218;-80
2022/12/24 01:15:07;;;;;;;0.50;0.40;;;10.50;99.90;;;;;;5069079;28;20437;-81
2022/12/24 01:17:35;;;;;;;3.90;1.67;;;10.40;99.90;;;;;;5066561;28;20206;-79
2022/12/24 01:20:03;;;;;;;0.90;0.50;;;10.40;99.90;;;;;;5067768;28;20183;-80
2022/12/24 01:22:29;;;;;;;26.88;2.20;;;10.30;99.90;;;;;;5066541;28;20226;-80
2022/12/24 01:24:58;;;;;;;0.95;0.80;;;10.20;99.90;;;;;;5057615;28;20639;-78
2022/12/24 01:27:24;;;;;;;0.50;0.40;;;10.20;99.90;;;;;;5069626;28;20289;-80
2022/12/24 01:29:51;;;;;;;5.65;2.88;;;10.20;99.90;;;;;;5061067;28;20839;-80
2022/12/24 01:32:18;;;;;;;3.72;1.08;;;10.20;99.90;;;;;;5056782;28;20234;-80
2022/12/24 01:34:45;;;;;;;0.90;0.70;;;10.20;99.90;;;;;;5058487;28;20194;-81
2022/12/24 01:37:12;;;;;;;13.23;1.13;;;10.20;99.90;;;;;;5058303;28;21000;-81
2022/12/24 01:39:39;;;;;;;12.38;3.72;;;10.20;99.90;;;;;;5057697;28;20497;-80
2022/12/24 01:45:41;;;;;;;0.60;0.40;;;10.10;99.90;;;;;;5047582;28;20455;-80
2022/12/24 01:48:16;;;;;;;0.67;0.37;;;10.10;99.90;;;;;;5044285;28;20459;-80
2022/12/24 01:50:43;;;;;;;1.35;1.20;;;10.10;99.90;;;;;;5055751;28;20475;-80
2022/12/24 01:53:11;;;;;;;0.90;0.80;;;10.00;99.90;;;;;;5043288;28;20897;-80
2022/12/24 01:55:38;;;;;;;2.40;1.03;;;10.00;99.90;;;;;;5042819;28;20230;-80
2022/12/24 01:58:08;;;;;;;27.23;2.73;;;10.00;99.90;;;;;;5051596;28;20513;-80
2022/12/24 02:00:35;;;;;;;6.60;1.20;;;10.00;99.90;;;;;;5053475;28;20464;-80
2022/12/24 02:03:02;;;;;;;1.80;1.65;;;10.00;99.90;;;;;;5050182;28;20232;-80
2022/12/24 02:05:31;;;;;;;3.35;1.05;;;10.00;99.90;;;;;;5049672;28;20237;-79
2022/12/24 02:08:00;;;;;;;1.50;1.40;;;10.00;99.90;;;;;;5045498;28;20289;-80
2022/12/24 02:10:27;;;;;;;1.15;0.63;;;10.00;99.90;;;;;;5043848;28;20549;-80
2022/12/24 02:12:54;;;;;;;5.20;2.00;;;9.90;99.90;;;;;;5056811;28;20241;-78
2022/12/24 02:15:23;;;;;;;8.23;2.55;;;9.90;99.90;;;;;;5056215;28;20444;-80
2022/12/24 02:17:59;;;;;;;4.88;1.85;;;9.80;99.90;;;;;;5061631;28;20204;-80
2022/12/24 02:20:46;;;;;;;5.70;2.28;;;9.80;99.90;;;;;;5050148;28;20187;-81
2022/12/24 02:23:47;;;;;;;1.15;0.50;;;9.80;99.90;;;;;;5044134;28;20662;-81
2022/12/24 02:26:27;;;;;;;4.60;1.23;;;9.80;99.90;;;;;;5036823;28;20203;-81
2022/12/24 02:29:20;;;;;;;1.35;1.30;;;9.90;99.90;;;;;;5056254;28;20258;-80
2022/12/24 02:31:51;;;;;;;0.80;0.70;;;9.90;99.90;;;;;;5056403;28;20289;-81
2022/12/24 02:34:24;;;;;;;1.98;1.88;;;9.90;99.90;;;;;;5054376;28;20537;-80
2022/12/24 02:36:57;;;;;;;7.78;0.90;;;10.00;99.90;;;;;;5055974;28;20281;-80
2022/12/24 02:39:31;;;;;;;1.25;0.80;;;10.00;99.90;;;;;;5050104;28;20191;-81
2022/12/24 02:42:08;;;;;;;0.70;0.50;;;9.90;99.90;;;;;;5054839;28;20211;-79
2022/12/24 02:44:40;;;;;;;5.50;2.22;;;9.90;99.90;;;;;;5050725;28;20596;-80
2022/12/24 02:47:11;;;;;;;7.13;3.15;;;9.90;99.90;;;;;;5050851;28;20182;-79
2022/12/24 02:49:38;;;;;;;2.45;1.80;;;9.90;99.90;;;;;;5052501;28;20270;-80
2022/12/24 02:52:05;;;;;;;2.35;1.08;;;9.90;99.90;;;;;;5051946;28;20278;-80
2022/12/24 02:54:33;;;;;;;0.88;0.88;;;9.90;99.90;;;;;;5053578;28;20213;-80
2022/12/24 02:57:10;;;;;;;2.53;2.33;;;9.90;99.90;;;;;;5046791;28;20214;-80
2022/12/24 02:59:52;;;;;;;1.55;0.60;;;9.90;99.90;;;;;;5055931;28;20190;-80
2022/12/24 03:02:26;;;;;;;7.03;2.38;;;9.90;99.90;;;;;;5054300;28;20218;-80
2022/12/24 03:05:02;;;;;;;1.02;0.73;;;9.80;99.90;;;;;;5051992;28;20761;-80
2022/12/24 03:07:34;;;;;;;16.73;1.23;;;9.80;99.90;;;;;;5055827;28;20532;-80
2022/12/24 03:10:11;;;;;;;5.55;0.77;;;9.70;99.90;;;;;;5050476;28;20243;-80
2022/12/24 03:12:41;;;;;;;0.50;0.40;;;9.70;99.90;;;;;;5049699;28;20220;-80
2022/12/24 03:15:10;;;;;;;3.80;1.30;;;9.70;99.90;;;;;;5047422;28;20191;-80
2022/12/24 03:17:40;;;;;;;0.60;0.60;;;9.70;99.90;;;;;;5054272;28;20635;-80
2022/12/24 03:20:10;;;;;;;1.45;0.80;;;9.70;99.90;;;;;;5036704;28;20183;-79
2022/12/24 03:22:37;;;;;;;5.45;1.67;;;9.70;99.90;;;;;;5051994;28;20207;-81
2022/12/24 03:25:05;;;;;;;0.77;0.77;;;9.80;99.90;;;;;;5046827;28;20569;-81
2022/12/24 03:27:33;;;;;;;5.47;1.42;;;9.80;99.90;;;;;;5051237;28;20285;-79
2022/12/24 03:30:01;;;;;;;2.25;1.60;;;9.80;99.90;;;;;;5043462;28;20188;-80
2022/12/24 03:32:30;;;;;;;5.07;1.35;;;9.80;99.90;;;;;;5042052;28;20207;-80
2022/12/24 03:34:58;;;;;;;0.60;0.60;;;9.80;99.90;;;;;;5036427;28;20285;-80
2022/12/24 03:37:26;;;;;;;2.60;1.67;;;9.80;99.90;;;;;;5053886;28;20202;-80
2022/12/24 03:39:53;;;;;;;0.50;0.40;;;9.80;99.90;;;;;;5054997;28;20313;-80
2022/12/24 03:42:20;;;;;;;5.38;2.08;;;9.80;99.90;;;;;;5046230;28;20314;-80
2022/12/24 03:44:47;;;;;;;9.27;2.42;;;9.90;99.90;;;;;;5053093;28;20237;-79
2022/12/24 03:47:13;;;;;;;0.50;0.35;;;9.90;99.90;;;;;;5051938;28;20221;-80
2022/12/24 03:49:40;;;;;;;1.95;0.70;;;9.90;99.90;;;;;;5051776;28;20676;-80
2022/12/24 03:52:08;;;;;;;1.73;1.30;;;9.90;99.90;;;;;;5038695;28;20233;-78
2022/12/24 03:54:35;;;;;;;0.70;0.50;;;9.90;99.90;;;;;;5056193;28;20225;-79
2022/12/24 03:57:02;;;;;;;1.65;1.55;;;9.90;99.90;;;;;;5052229;28;20199;-80
2022/12/24 03:59:29;;;;;;;1.75;1.63;;;9.90;99.90;;;;;;5051609;28;20191;-80
2022/12/24 04:01:56;;;;;;;2.60;0.80;;;9.90;99.90;;;;;;5046253;28;20205;-80
2022/12/24 04:04:25;;;;;;;4.47;4.18;;;9.90;99.90;;;;;;5053795;28;20198;-80
2022/12/24 04:06:51;;;;;;;2.35;1.45;;;9.90;99.90;;;;;;5056101;28;20194;-80
2022/12/24 04:09:20;;;;;;;2.17;1.42;;;9.90;99.90;;;;;;5057840;28;20191;-80
2022/12/24 04:11:46;;;;;;;0.85;0.85;;;9.90;99.90;;;;;;5058601;28;20220;-80
2022/12/24 04:14:13;;;;;;;2.35;2.03;;;9.90;99.90;;;;;;5063420;28;20220;-80
2022/12/24 04:16:40;;;;;;;1.23;1.07;;;9.90;99.90;;;;;;5060079;28;20199;-79
2022/12/24 04:19:07;;;;;;;16.00;2.05;;;9.90;99.90;;;;;;5056094;28;20519;-78
2022/12/24 04:21:34;;;;;;;0.93;0.93;;;9.80;99.90;;;;;;5059445;28;20259;-80
2022/12/24 04:24:01;;;;;;;0.50;0.40;;;9.90;99.90;;;;;;5049096;28;20493;-80
2022/12/24 04:26:29;;;;;;;0.95;0.70;;;9.90;99.90;;;;;;5055647;28;20198;-80
2022/12/24 04:28:56;;;;;;;2.55;2.25;;;9.90;99.90;;;;;;5058490;28;20226;-80
2022/12/24 04:31:22;;;;;;;5.88;0.70;;;9.90;99.90;;;;;;5055862;28;20203;-80
2022/12/24 04:33:52;;;;;;;0.50;0.40;;;9.90;99.90;;;;;;5040456;28;20225;-80
2022/12/24 04:36:20;;;;;;;7.20;1.27;;;10.00;99.90;;;;;;5056308;28;20202;-81
2022/12/24 04:38:47;;;;;;;0.88;0.70;;;10.00;99.90;;;;;;5048381;28;20276;-81
2022/12/24 04:41:16;;;;;;;1.13;0.50;;;10.00;99.90;;;;;;5054682;28;20189;-80
2022/12/24 04:43:44;;;;;;;1.60;1.50;;;10.00;99.90;;;;;;5050909;28;20214;-79
2022/12/24 04:46:14;;;;;;;0.47;0.40;;;10.10;99.90;;;;;;5055486;28;20190;-79
2022/12/24 04:48:42;;;;;;;1.00;0.90;;;10.10;99.90;;;;;;5048875;28;20610;-80
2022/12/24 04:51:09;;;;;;;5.00;0.75;;;10.10;99.90;;;;;;5054641;28;20480;-77
2022/12/24 04:53:37;;;;;;;12.02;1.50;;;10.20;99.90;;;;;;5057122;28;20219;-79
2022/12/24 04:56:07;;;;;;;0.50;0.40;;;10.10;99.90;;;;;;5044623;28;20278;-79
2022/12/24 04:58:33;;;;;;;2.35;2.15;;;10.20;99.90;;;;;;5053546;28;20187;-79
2022/12/24 05:01:04;;;;;;;2.25;0.95;;;10.20;99.90;;;;;;5053692;28;20218;-78
2022/12/24 05:03:31;;;;;;;1.30;1.20;;;10.30;99.90;;;;;;5052232;28;20225;-79
2022/12/24 05:06:01;;;;;;;2.15;1.08;;;10.20;99.90;;;;;;5048075;28;20290;-79
2022/12/24 05:08:28;;;;;;;0.50;0.50;;;10.30;99.90;;;;;;5056960;28;20269;-79
2022/12/24 05:10:56;;;;;;;0.50;0.40;;;10.30;99.90;;;;;;5042760;28;20279;-80
2022/12/24 05:13:23;;;;;;;0.50;0.40;;;10.30;99.90;;;;;;5046708;28;20211;-80
2022/12/24 05:15:50;;;;;;;2.85;0.95;;;10.20;99.90;;;;;;5058136;28;20664;-80
2022/12/24 05:18:18;;;;;;;1.23;0.93;;;10.30;99.90;;;;;;5053433;28;20281;-80
2022/12/24 05:20:46;;;;;;;51.40;3.20;;;10.30;99.90;;;;;;5058870;28;20201;-80
2022/12/24 05:28:45;;;;;;;0.60;0.60;;;10.30;99.90;;;;;;5053853;28;20449;-80
2022/12/24 05:31:12;;;;;;;0.40;0.30;;;10.30;99.90;;;;;;5053127;28;20544;-80
2022/12/24 05:33:42;;;;;;;0.80;0.57;;;10.30;99.90;;;;;;5053548;28;20738;-79
2022/12/24 05:36:09;;;;;;;2.45;0.77;;;10.30;99.90;;;;;;5051609;28;20978;-80
2022/12/24 05:38:36;;;;;;;1.05;1.00;;;10.20;99.90;;;;;;5058232;28;20723;-80
2022/12/24 05:41:04;;;;;;;4.40;0.70;;;10.20;99.90;;;;;;5054598;28;20660;-80
2022/12/24 05:43:30;;;;;;;1.83;1.20;;;10.20;99.90;;;;;;5048540;28;20214;-80
2022/12/24 05:46:01;;;;;;;0.50;0.40;;;10.20;99.90;;;;;;5054108;28;20205;-80
2022/12/24 05:48:28;;;;;;;1.70;1.23;;;10.20;99.90;;;;;;5056697;28;20210;-78
2022/12/24 05:50:56;;;;;;;14.17;1.97;;;10.30;99.90;;;;;;5054536;28;20305;-81
2022/12/24 05:53:24;;;;;;;2.38;1.40;;;10.20;99.90;;;;;;5051944;28;20465;-81
2022/12/24 05:55:51;;;;;;;1.43;1.43;;;10.20;99.90;;;;;;5055023;28;20205;-80
2022/12/24 05:58:18;;;;;;;13.80;3.65;;;10.20;99.90;;;;;;5058965;28;20429;-82
2022/12/24 06:00:44;;;;;;;0.45;0.30;;;10.20;99.90;;;;;;5058035;28;20202;-81
2022/12/24 06:03:11;;;;;;;0.70;0.70;;;10.20;99.90;;;;;;5056620;28;20214;-82
2022/12/24 06:05:40;;;;;;;0.50;0.40;;;10.20;99.90;;;;;;5056156;28;20621;-82
2022/12/24 06:08:08;;;;;;;2.30;1.50;;;10.20;99.90;;;;;;5056191;28;20194;-82
2022/12/24 06:10:35;;;;;;;5.57;1.48;;;10.30;99.90;;;;;;5058521;28;20437;-81
2022/12/24 06:13:02;;;;;;;2.78;2.42;;;10.30;99.90;;;;;;5048409;28;20213;-82
2022/12/24 06:15:28;;;;;;;3.78;2.05;;;10.30;99.90;;;;;;5064523;28;20278;-81
2022/12/24 06:17:55;;;;;;;8.32;1.73;;;10.20;99.90;;;;;;5055651;28;20293;-81
2022/12/24 06:20:22;;;;;;;3.53;0.77;;;10.20;99.90;;;;;;5056040;28;20199;-80
2022/12/24 06:22:49;;;;;;;5.70;1.40;;;10.20;99.90;;;;;;5056316;28;20289;-81
2022/12/24 06:25:17;;;;;;;3.10;1.27;;;10.20;99.90;;;;;;5055878;28;20215;-81
2022/12/24 06:27:44;;;;;;;0.80;0.70;;;10.20;99.90;;;;;;5054335;28;20222;-81
2022/12/24 06:30:11;;;;;;;2.50;0.80;;;10.20;99.90;;;;;;5054039;28;20532;-79
2022/12/24 06:32:38;;;;;;;0.60;0.60;;;10.30;99.90;;;;;;5053828;28;20515;-81
2022/12/24 06:35:05;;;;;;;0.90;0.80;;;10.20;99.90;;;;;;5055795;28;20425;-81
2022/12/24 06:37:32;;;;;;;1.85;0.90;;;10.30;99.90;;;;;;5056076;28;20281;-81
2022/12/24 06:39:59;;;;;;;1.15;1.05;;;10.30;99.90;;;;;;5055535;28;20194;-80
2022/12/24 06:42:27;;;;;;;1.77;1.23;;;10.30;99.90;;;;;;5055757;28;20207;-78
2022/12/24 06:44:54;;;;;;;1.25;1.15;;;10.30;99.90;;;;;;5052696;28;20209;-80
2022/12/24 06:47:21;;;;;;;0.55;0.50;;;10.30;99.90;;;;;;5055198;28;20278;-80
2022/12/24 06:49:48;;;;;;;0.60;0.50;;;10.20;99.90;;;;;;5052641;28;20214;-80
2022/12/24 06:52:15;;;;;;;2.95;1.85;;;10.20;99.90;;;;;;5043691;28;20264;-79
2022/12/24 06:54:41;;;;;;;3.25;1.40;;;10.20;99.90;;;;;;5053045;28;20659;-79
2022/12/24 06:57:08;;;;;;;0.60;0.40;;;10.20;99.90;;;;;;5055939;28;20191;-80
2022/12/24 06:59:36;;;;;;;4.78;2.80;;;10.20;99.90;;;;;;5051107;28;20281;-80
2022/12/24 07:02:04;;;;;;;2.78;0.52;;;10.20;99.90;;;;;;5049571;28;20186;-81
2022/12/24 07:04:30;;;;;;;4.57;2.88;;;10.20;99.90;;;;;;5045481;28;20195;-80
2022/12/24 07:06:58;;;;;;;0.67;0.57;;;10.20;99.90;;;;;;5054275;28;20265;-79
2022/12/24 07:09:25;;;;;;;0.70;0.60;;;10.20;99.90;;;;;;5037401;28;21003;-78
2022/12/24 07:11:52;;;;;;;0.80;0.80;;;10.20;99.90;;;;;;5054892;28;20486;-79
2022/12/24 07:14:19;;;;;;;16.63;2.83;;;10.20;99.90;;;;;;5053532;28;20536;-80
2022/12/24 07:16:48;;;;;;;0.50;0.40;;;10.20;99.90;;;;;;5054846;28;20926;-79
2022/12/24 07:19:15;;;;;;;6.75;4.35;;;10.20;99.90;;;;;;5055554;28;20441;-80
2022/12/24 07:21:42;;;;;;;2.13;1.20;;;10.20;99.90;;;;;;5053656;28;20191;-82
2022/12/24 07:24:09;;;;;;;0.90;0.90;;;10.20;99.90;;;;;;5060763;28;20509;-80
2022/12/24 07:26:36;;;;;;;2.67;1.25;;;10.20;99.90;;;;;;5071996;28;20441;-80
2022/12/24 07:29:03;;;;;;;0.67;0.60;;;10.20;99.90;;;;;;5064469;28;20326;-81
2022/12/24 07:31:30;;;;;;;20.53;2.60;;;10.10;99.90;;;;;;5056090;28;20476;-80
2022/12/24 07:33:58;;;;;;;1.13;1.03;;;10.10;99.90;;;;;;5048428;28;20568;-79
2022/12/24 07:36:27;;;;;;;0.60;0.50;;;10.00;99.90;;;;;;5054722;28;20864;-80
2022/12/24 07:38:54;;;;;;;3.80;2.08;;;10.00;99.90;;;;;;5053992;28;20225;-79
2022/12/24 07:41:21;;;;;;;0.93;0.93;;;10.10;99.90;;;;;;5047255;28;20745;-80
2022/12/24 07:43:48;;;;;;;4.00;0.90;;;10.10;99.90;;;;;;5051136;28;20329;-80
2022/12/24 07:46:14;;;;;;;3.93;3.63;;;10.10;99.90;;;;;;5052898;28;20519;-79
2022/12/24 07:48:41;;;;;;;11.60;1.33;;;10.10;99.90;;;;;;5055415;28;20465;-80
2022/12/24 07:51:09;;;;;;;4.53;1.90;;;10.10;99.90;;;;;;5048920;28;20461;-79
2022/12/24 07:53:36;;;;;;;0.50;0.40;;;10.10;99.90;;;;;;5054117;28;20465;-81
2022/12/24 07:56:03;;;;;;;1.98;1.27;;;10.10;99.90;;;;;;5052824;28;20484;-80
2022/12/24 07:58:30;;;;;;;0.50;0.40;;;10.10;99.90;;;;;;5052367;28;20201;-80
2022/12/24 08:00:58;;;;;;;0.50;0.43;;;10.10;99.90;;;;;;5052792;28;20190;-80
2022/12/24 08:03:25;;;;;;;12.57;2.30;;;10.20;99.90;;;;;;5055222;28;20238;-79
2022/12/24 08:05:52;;;;;;;0.50;0.50;;;10.10;99.90;;;;;;5045458;28;20538;-80
2022/12/24 08:08:21;;;;;;;3.55;3.03;;;10.10;99.90;;;;;;5051742;28;20194;-80
2022/12/24 08:10:48;;;;;;;7.60;2.30;;;10.10;99.90;;;;;;5053584;28;20194;-80
2022/12/24 08:13:15;;;;;;;7.03;3.47;;;10.10;99.90;;;;;;5054660;28;20564;-80
2022/12/24 08:15:42;;;;;;;0.70;0.70;;;10.10;99.90;;;;;;5060218;28;20468;-81
2022/12/24 08:18:09;;;;;;;1.88;0.75;;;10.10;99.90;;;;;;5054774;28;20520;-81
2022/12/24 08:20:38;;;;;;;2.20;0.80;;;10.10;99.90;;;;;;5052421;28;20248;-80
2022/12/24 08:23:05;;;;;;;7.40;2.00;;;10.20;99.90;;;;;;5055536;28;20532;-81
2022/12/24 08:25:34;;;;;;;3.80;1.92;;;10.10;99.90;;;;;;5051718;28;20249;-80
2022/12/24 08:28:01;;;;;;;8.52;3.80;;;10.10;99.90;;;;;;5044428;28;20223;-80
2022/12/24 08:30:28;;;;;;;4.22;1.80;;;10.20;99.90;;;;;;5054321;28;20657;-80
2022/12/24 08:32:55;;;;;;;0.70;0.50;;;10.20;99.90;;;;;;5048037;28;20722;-80
2022/12/24 08:35:21;;;;;;;5.20;1.40;;;10.20;99.90;;;;;;5043901;28;20552;-80
2022/12/24 08:37:48;;;;;;;4.05;1.50;;;10.20;99.90;;;;;;5042568;28;20646;-80
2022/12/24 08:40:15;;;;;;;1.97;1.07;;;10.20;99.90;;;;;;5052643;28;20213;-81
2022/12/24 08:42:44;;;;;;;0.50;0.30;;;10.20;99.90;;;;;;5052506;28;20920;-80
2022/12/24 08:45:12;;;;;;;1.20;1.10;;;10.20;99.90;;;;;;5048294;28;20197;-79
2022/12/24 08:47:39;;;;;;;5.63;2.38;;;10.30;99.90;;;;;;5049952;28;20500;-80
2022/12/24 08:50:07;;;;;;;35.10;4.70;;;10.20;99.90;;;;;;5035789;28;20195;-80
2022/12/24 08:52:34;;;;;;;9.48;1.67;;;10.20;99.90;;;;;;5045939;28;20226;-79
2022/12/24 08:55:01;;;;;;;2.80;1.55;;;10.20;99.90;;;;;;5052444;28;20219;-79
2022/12/24 08:57:28;;;;;;;2.53;1.80;;;10.20;99.90;;;;;;5055679;28;20652;-80
2022/12/24 08:59:57;;;;;;;2.83;1.33;;;10.20;99.90;;;;;;5047859;28;20985;-80
2022/12/24 09:02:23;;;;;;;0.50;0.40;;;10.20;99.90;;;;;;5054765;28;20451;-80
2022/12/24 09:04:51;;;;;;;1.50;1.30;;;10.20;99.90;;;;;;5058077;28;20564;-79
2022/12/24 09:07:18;;;;;;;0.50;0.50;;;10.20;99.90;;;;;;5059294;28;20821;-79
2022/12/24 09:09:45;;;;;;;0.50;0.40;;;10.30;99.90;;;;;;5060517;28;20226;-79
2022/12/24 09:12:12;;;;;;;6.37;1.13;;;10.40;99.90;;;;;;5056399;28;20470;-79
2022/12/24 09:14:39;;;;;;;0.67;0.67;;;10.50;99.90;;;;;;5065206;28;20520;-80
2022/12/24 09:17:07;;;;;;;1.48;1.20;;;10.50;99.90;;;;;;5070416;28;20488;-78
2022/12/24 09:19:34;;;;;;;2.03;1.93;;;10.60;99.90;;;;;;5067249;28;20229;-80
2022/12/24 09:22:01;;;;;;;0.50;0.40;;;10.60;99.90;;;;;;5066676;28;20417;-80
2022/12/24 09:24:27;;;;;;;0.53;0.47;;;10.70;99.90;;;;;;5071677;28;20520;-78
2022/12/24 09:26:54;;;;;;;6.55;2.55;;;10.80;99.90;;;;;;5054236;28;20461;-80
2022/12/24 09:29:21;;;;;;;1.13;0.53;;;11.00;99.90;;;;;;5060036;28;20262;-78
2022/12/24 09:31:48;;;;;;;0.50;0.50;;;11.00;99.90;;;;;;5072355;28;20472;-78
2022/12/24 09:34:18;;;;;;;1.90;0.50;;;11.00;99.90;;;;;;5064253;28;20461;-80
2022/12/24 09:36:45;;;;;;;1.60;0.70;;;11.00;99.90;;;;;;5057661;28;20876;-80
2022/12/24 09:39:12;;;;;;;10.00;1.23;;;11.00;99.90;;;;;;5057672;28;20927;-81
2022/12/24 09:41:47;;;;;;;3.03;0.90;;;11.00;99.90;;;;;;5057884;28;20532;-81
2022/12/24 09:44:27;;;;;;;2.70;1.83;;;11.00;99.90;;;;;;5049831;28;20519;-80
2022/12/24 09:46:54;;;;;;;11.27;2.83;;;11.00;99.90;;;;;;5054064;28;20437;-81
2022/12/24 09:49:29;;;;;;;2.38;2.25;;;11.00;99.90;;;;;;5044358;28;20195;-80
2022/12/24 09:52:00;;;;;;;11.43;1.67;;;11.00;99.90;;;;;;5050455;28;20198;-79
2022/12/24 09:54:30;;;;;;;0.50;0.38;;;11.00;99.90;;;;;;5055201;28;20244;-80
2022/12/24 09:57:01;;;;;;;1.70;1.60;;;11.30;99.90;;;;;;5051216;28;20198;-80
2022/12/24 09:59:39;;;;;;;0.70;0.70;;;11.50;99.90;;;;;;5046955;28;20450;-80
2022/12/24 10:02:11;;;;;;;0.70;0.70;;;11.50;99.90;;;;;;5052599;28;20794;-81
2022/12/24 10:04:39;;;;;;;5.43;2.40;;;11.40;99.90;;;;;;5054936;28;20449;-80
2022/12/24 10:07:12;;;;;;;8.87;0.67;;;11.30;99.90;;;;;;5053213;28;20457;-79
2022/12/24 10:09:48;;;;;;;0.67;0.67;;;11.20;99.90;;;;;;5048328;28;20462;-79
2022/12/24 10:12:21;;;;;;;17.17;0.88;;;11.10;99.90;;;;;;5052587;28;20966;-80
2022/12/24 10:14:59;;;;;;;1.60;1.50;;;11.10;99.90;;;;;;5054519;28;20233;-80
2022/12/24 10:17:42;;;;;;;9.43;3.50;;;11.10;99.90;;;;;;5054505;28;20459;-79
2022/12/24 10:20:31;;;;;;;4.13;1.37;;;11.10;99.90;;;;;;5052975;28;20492;-79
2022/12/24 10:23:04;;;;;;;1.47;1.37;;;11.10;99.90;;;;;;5050208;28;20561;-80
2022/12/24 10:25:36;;;;;;;11.70;1.97;;;11.10;99.90;;;;;;5050914;28;20480;-79
2022/12/24 10:28:13;;;;;;;5.05;1.50;;;11.10;99.90;;;;;;5052879;28;20452;-80
2022/12/24 10:30:40;;;;;;;0.50;0.50;;;11.00;99.90;;;;;;5051764;28;20197;-79
2022/12/24 10:33:15;;;;;;;1.27;1.20;;;11.00;99.90;;;;;;5050485;28;20476;-80
2022/12/24 10:35:50;;;;;;;11.88;1.27;;;11.00;99.90;;;;;;5052142;28;20464;-80
2022/12/24 10:38:17;;;;;;;2.57;2.37;;;11.00;99.90;;;;;;5046595;28;20197;-80
2022/12/24 10:40:46;;;;;;;0.50;0.40;;;11.10;99.90;;;;;;5052873;28;20445;-81
2022/12/24 10:43:15;;;;;;;3.22;2.78;;;11.20;99.90;;;;;;5054811;28;20253;-81
2022/12/24 10:45:46;;;;;;;1.80;1.07;;;11.30;99.90;;;;;;5063090;28;20205;-80
2022/12/24 10:48:22;;;;;;;3.53;1.87;;;11.40;99.90;;;;;;5054244;28;20957;-79
2022/12/24 10:50:56;;;;;;;5.70;2.33;;;11.60;99.90;;;;;;5051756;28;20457;-79
2022/12/24 10:53:28;;;;;;;3.30;1.50;;;11.70;99.90;;;;;;5055157;28;20484;-80
2022/12/24 10:56:03;;;;;;;6.43;1.70;;;11.60;99.90;;;;;;5035470;28;20804;-80
2022/12/24 10:58:31;;;;;;;0.50;0.40;;;11.50;99.90;;;;;;5055222;28;20480;-79
2022/12/24 11:00:58;;;;;;;5.53;1.67;;;11.60;99.90;;;;;;5054981;28;20437;-80
2022/12/24 11:03:31;;;;;;;5.47;1.80;;;11.70;99.90;;;;;;5052580;28;20994;-80
2022/12/24 11:06:06;;;;;;;1.67;0.97;;;11.70;99.90;;;;;;5054051;28;20456;-80
2022/12/24 11:08:34;;;;;;;3.67;1.43;;;11.70;99.90;;;;;;5056163;28;21001;-80
2022/12/24 11:11:02;;;;;;;3.47;1.08;;;11.60;99.90;;;;;;5049931;28;20517;-80
2022/12/24 11:13:31;;;;;;;1.97;0.77;;;11.50;99.90;;;;;;5056233;28;20218;-80
2022/12/24 11:16:07;;;;;;;0.50;0.40;;;11.40;99.90;;;;;;5058995;28;20532;-80
2022/12/24 11:18:37;;;;;;;0.50;0.40;;;11.40;99.90;;;;;;5054130;28;20878;-81
2022/12/24 11:21:06;;;;;;;1.40;1.33;;;11.40;99.90;;;;;;5055650;28;20445;-80
2022/12/24 11:23:33;;;;;;;1.27;1.17;;;11.30;99.90;;;;;;5055233;28;20544;-80
2022/12/24 11:26:00;;;;;;;0.50;0.40;;;11.30;99.90;;;;;;5056385;28;20441;-81
2022/12/24 11:28:29;;;;;;;0.50;0.50;;;11.40;99.90;;;;;;5050266;28;20520;-80
2022/12/24 11:31:00;;;;;;;15.43;2.03;;;11.50;99.90;;;;;;5062806;28;20484;-80
2022/12/24 11:33:27;;;;;;;2.33;1.17;;;11.60;99.90;;;;;;5072235;28;20499;-81
2022/12/24 11:35:59;;;;;;;0.50;0.30;;;11.50;99.90;;;;;;5045247;28;20931;-80
2022/12/24 11:38:29;;;;;;;3.07;1.87;;;11.50;99.90;;;;;;5050713;28;20429;-80
2022/12/24 11:41:02;;;;;;;1.33;1.23;;;11.50;99.90;;;;;;5054397;28;20532;-80
2022/12/24 11:43:44;;;;;;;0.60;0.40;;;11.50;99.90;;;;;;5053217;28;21061;-80
2022/12/24 11:46:35;;;;;;;5.00;2.57;;;11.50;99.90;;;;;;5057179;28;20471;-80
2022/12/24 11:49:14;;;;;;;12.57;1.50;;;11.50;99.90;;;;;;5047109;28;20441;-79
2022/12/24 11:52:00;;;;;;;0.50;0.50;;;11.50;99.90;;;;;;5054849;28;20472;-79
2022/12/24 11:54:32;;;;;;;3.60;2.13;;;11.60;99.90;;;;;;5043707;28;20832;-79
2022/12/24 11:57:01;;;;;;;11.93;2.20;;;11.60;99.90;;;;;;5050970;28;20445;-79
2022/12/24 11:59:31;;;;;;;11.07;2.77;;;11.60;99.90;;;;;;5037905;28;20446;-80
2022/12/24 12:02:02;;;;;;;0.70;0.70;;;11.50;99.90;;;;;;5041101;28;20450;-78
2022/12/24 12:04:31;;;;;;;0.50;0.30;;;11.50;99.90;;;;;;5051431;28;21092;-81
2022/12/24 12:07:03;;;;;;;0.50;0.37;;;11.60;99.90;;;;;;5052874;28;20455;-78
2022/12/24 12:09:34;;;;;;;2.50;2.30;;;11.70;99.90;;;;;;5050249;28;20977;-79
2022/12/24 12:12:06;;;;;;;1.00;0.90;;;11.70;99.90;;;;;;5051882;28;20516;-80
2022/12/24 12:14:38;;;;;;;6.90;3.10;;;11.70;99.90;;;;;;5052079;28;20532;-80
2022/12/24 12:17:16;;;;;;;3.60;2.10;;;11.60;99.90;;;;;;5046908;28;21206;-80
2022/12/24 12:19:47;;;;;;;0.50;0.40;;;11.50;99.90;;;;;;5058329;28;20426;-80
2022/12/24 12:22:23;;;;;;;0.70;0.60;;;11.50;99.90;;;;;;5036451;28;20458;-80
2022/12/24 12:24:55;;;;;;;4.77;1.27;;;11.50;99.90;;;;;;5045350;28;20531;-80
2022/12/24 12:27:31;;;;;;;2.03;1.30;;;11.50;99.90;;;;;;5058022;28;20561;-80
2022/12/24 12:30:01;;;;;;;8.40;3.20;;;11.50;99.90;;;;;;5055953;28;20490;-79
2022/12/24 12:32:39;;;;;;;0.77;0.77;;;11.50;99.90;;;;;;5057961;28;20494;-80
2022/12/24 12:35:16;;;;;;;0.70;0.60;;;11.50;99.90;;;;;;5058856;28;20468;-79
2022/12/24 12:37:55;;;;;;;1.67;1.57;;;11.50;99.90;;;;;;5055406;28;21034;-80
2022/12/24 12:40:43;;;;;;;1.03;0.87;;;11.50;99.90;;;;;;5048598;28;20496;-80
2022/12/24 12:43:23;;;;;;;0.50;0.40;;;11.50;99.90;;;;;;5049253;28;20515;-80
2022/12/24 12:45:55;;;;;;;1.07;0.97;;;11.50;99.90;;;;;;5054374;28;20858;-80
2022/12/24 12:48:43;;;;;;;30.13;2.83;;;11.50;99.90;;;;;;5037790;28;20541;-80
2022/12/24 12:51:18;;;;;;;0.50;0.40;;;11.60;99.90;;;;;;5052859;28;20468;-78
2022/12/24 12:54:08;;;;;;;0.67;0.60;;;11.60;99.90;;;;;;5044204;28;20568;-79
2022/12/24 12:56:38;;;;;;;0.60;0.47;;;11.60;99.90;;;;;;5050096;28;20508;-80
2022/12/24 12:59:12;;;;;;;0.50;0.40;;;11.70;99.90;;;;;;5050509;28;20455;-80
2022/12/24 13:01:46;;;;;;;0.50;0.40;;;11.90;99.90;;;;;;5052791;28;20552;-79
2022/12/24 13:04:44;;;;;;;1.63;1.07;;;12.00;99.90;;;;;;5048682;28;20566;-80
2022/12/24 13:07:49;;;;;;;12.87;2.60;;;12.00;99.90;;;;;;5051388;28;20445;-79
2022/12/24 13:10:40;;;;;;;1.80;1.47;;;12.00;99.90;;;;;;5047364;28;20568;-80